Time;durP1;ratioP1;P1;durP2;ratioP2;P2;SDS_P1;SDS_P2;PMS_P1;PMS_P2;Temp;Humidity;BMP_temperature;BMP_pressure;BME280_temperature;BME280_humidity;BME280_pressure;Samples;Min_cycle;Max_cycle;Signal;HPM_P1;HPM_P2
2024/02/01 00:00:14;;;;;;;31.57;19.50;;;;;;;4.83;100.00;101158.91;4994817;28;20293;-76
2024/02/01 00:02:40;;;;;;;30.48;18.08;;;;;;;4.84;100.00;101149.19;4992294;28;20035;-77
2024/02/01 00:05:06;;;;;;;32.88;20.30;;;;;;;4.89;100.00;101159.41;4997810;28;20038;-77
2024/02/01 00:07:31;;;;;;;37.38;20.48;;;;;;;4.87;100.00;101148.97;5005688;28;20025;-77
2024/02/01 00:09:56;;;;;;;33.60;19.03;;;;;;;4.77;100.00;101135.56;4986119;28;20477;-77
2024/02/01 00:12:22;;;;;;;28.97;17.53;;;;;;;4.86;100.00;101158.69;5005113;28;20883;-77
2024/02/01 00:14:48;;;;;;;37.28;22.20;;;;;;;4.91;100.00;101152.22;4985270;28;20964;-76
2024/02/01 00:17:14;;;;;;;41.85;19.95;;;;;;;4.82;100.00;101130.78;5007627;28;20038;-76
2024/02/01 00:19:39;;;;;;;36.23;20.80;;;;;;;4.82;100.00;101133.44;4986803;28;20031;-77
2024/02/01 00:22:04;;;;;;;34.03;19.20;;;;;;;4.97;100.00;101138.53;5003439;28;20293;-77
2024/02/01 00:24:30;;;;;;;34.07;20.57;;;;;;;4.89;100.00;101130.31;5002299;28;20118;-77
2024/02/01 00:26:55;;;;;;;36.23;20.13;;;;;;;4.75;100.00;101113.69;5011087;28;20033;-77
2024/02/01 00:29:20;;;;;;;34.83;19.43;;;;;;;4.86;100.00;101128.75;5011991;28;20327;-76
2024/02/01 00:31:45;;;;;;;35.17;18.63;;;;;;;4.90;100.00;101126.72;5012272;28;20034;-77
2024/02/01 00:34:11;;;;;;;34.27;18.53;;;;;;;4.94;100.00;101121.09;5003276;28;20088;-77
2024/02/01 00:36:36;;;;;;;32.80;19.87;;;;;;;4.99;100.00;101121.56;4990992;28;20066;-77
2024/02/01 00:39:02;;;;;;;33.37;19.77;;;;;;;4.94;100.00;101115.78;5009960;28;20045;-77
2024/02/01 00:41:27;;;;;;;32.05;19.23;;;;;;;4.99;100.00;101121.56;5011352;28;20040;-77
2024/02/01 00:43:52;;;;;;;32.60;19.23;;;;;;;4.81;100.00;101097.34;5001977;28;20037;-76
2024/02/01 00:46:18;;;;;;;39.10;20.20;;;;;;;4.85;100.00;101127.91;4993517;28;20038;-76
2024/02/01 00:48:43;;;;;;;35.23;21.00;;;;;;;4.96;100.00;101134.19;5009832;28;20427;-76
2024/02/01 00:51:09;;;;;;;32.75;19.48;;;;;;;4.97;100.00;101128.78;5001790;28;20281;-77
2024/02/01 00:53:34;;;;;;;33.80;19.27;;;;;;;5.01;100.00;101109.06;4993538;28;20377;-77
2024/02/01 00:55:59;;;;;;;39.13;21.77;;;;;;;5.00;100.00;101104.72;4993371;28;20116;-77
2024/02/01 00:58:25;;;;;;;32.88;20.40;;;;;;;5.02;100.00;101120.50;5011228;28;20042;-77
2024/02/01 01:00:50;;;;;;;35.23;20.43;;;;;;;5.06;100.00;101116.66;4997195;28;20025;-78
2024/02/01 01:03:16;;;;;;;38.00;22.67;;;;;;;5.07;100.00;101124.44;5009308;28;20647;-78
2024/02/01 01:05:41;;;;;;;38.97;20.58;;;;;;;5.16;100.00;101124.72;5001020;28;20030;-78
2024/02/01 01:08:09;;;;;;;35.13;20.63;;;;;;;5.18;100.00;101125.44;5008615;28;20026;-79
2024/02/01 01:10:35;;;;;;;32.45;18.17;;;;;;;5.20;100.00;101128.81;5008656;28;20038;-78
2024/02/01 01:13:00;;;;;;;38.15;18.40;;;;;;;5.24;100.00;101133.78;4989018;28;20014;-81
2024/02/01 01:15:26;;;;;;;39.85;18.42;;;;;;;5.21;100.00;101131.34;5007122;28;20048;-79
2024/02/01 01:17:51;;;;;;;30.47;17.53;;;;;;;5.26;100.00;101129.16;4988745;28;20038;-79
2024/02/01 01:20:17;;;;;;;32.53;18.58;;;;;;;5.22;100.00;101121.59;4984001;28;20021;-80
2024/02/01 01:22:42;;;;;;;39.17;20.67;;;;;;;5.26;100.00;101123.88;5008810;28;20930;-81
2024/02/01 01:25:07;;;;;;;38.60;19.83;;;;;;;5.24;100.00;101130.25;5001703;28;20042;-78
2024/02/01 01:27:33;;;;;;;38.50;20.43;;;;;;;5.28;100.00;101132.53;4991725;28;20359;-78
2024/02/01 01:29:58;;;;;;;38.73;18.17;;;;;;;5.24;100.00;101125.81;4988890;28;20316;-80
2024/02/01 01:32:23;;;;;;;35.43;20.07;;;;;;;5.28;100.00;101126.41;4982836;28;20473;-79
2024/02/01 01:34:49;;;;;;;32.23;17.77;;;;;;;5.13;100.00;101101.97;5009701;28;20112;-79
2024/02/01 01:37:14;;;;;;;34.73;20.27;;;;;;;5.33;100.00;101142.78;4989473;28;20096;-80
2024/02/01 01:39:39;;;;;;;40.83;19.05;;;;;;;5.32;100.00;101127.03;5010397;28;20030;-79
2024/02/01 01:42:05;;;;;;;32.60;17.90;;;;;;;5.40;100.00;101119.31;4988939;28;20042;-81
2024/02/01 01:44:30;;;;;;;28.97;16.33;;;;;;;5.40;100.00;101122.81;4999456;28;20281;-81
2024/02/01 01:46:56;;;;;;;25.97;15.27;;;;;;;5.31;100.00;101123.53;4988846;28;20049;-79
2024/02/01 01:49:21;;;;;;;28.23;15.02;;;;;;;5.31;100.00;101130.63;5006501;28;20061;-81
2024/02/01 01:51:51;;;;;;;28.45;14.77;;;;;;;5.45;100.00;101131.22;5008407;28;20030;-81
2024/02/01 01:54:20;;;;;;;24.10;13.57;;;;;;;5.49;100.00;101129.19;4989007;28;20069;-80
2024/02/01 01:56:47;;;;;;;21.08;11.20;;;;;;;5.49;100.00;101148.56;5007694;28;20029;-78
2024/02/01 01:59:16;;;;;;;23.73;12.82;;;;;;;5.56;100.00;101156.06;5009652;28;20588;-79
2024/02/01 02:01:46;;;;;;;22.30;12.18;;;;;;;5.56;100.00;101150.75;5008872;28;20038;-81
2024/02/01 02:04:15;;;;;;;19.08;10.85;;;;;;;5.62;100.00;101152.91;5007876;28;20037;-81
2024/02/01 02:06:42;;;;;;;23.33;11.35;;;;;;;5.60;100.00;101131.84;4983132;28;20076;-79
2024/02/01 02:09:12;;;;;;;20.33;11.65;;;;;;;5.67;100.00;101154.25;5007602;28;20058;-79
2024/02/01 02:11:44;;;;;;;19.55;10.43;;;;;;;5.76;100.00;101152.69;4991822;28;20939;-78
2024/02/01 02:14:16;;;;;;;20.30;9.60;;;;;;;5.75;100.00;101153.63;5003366;28;20041;-80
2024/02/01 02:16:42;;;;;;;19.92;9.15;;;;;;;5.71;100.00;101145.09;5008072;28;20034;-81
2024/02/01 02:19:10;;;;;;;;;;;;;;;5.74;100.00;101148.47;5000426;28;20030;-77
2024/02/01 02:21:47;;;;;;;19.77;8.27;;;;;;;5.76;100.00;101142.09;5006989;28;19917;-80
2024/02/01 02:24:17;;;;;;;21.08;7.47;;;;;;;5.79;100.00;101154.25;5007660;28;20158;-77
2024/02/01 02:26:44;;;;;;;17.65;8.38;;;;;;;5.75;100.00;101150.16;4991672;28;20034;-78
2024/02/01 02:29:15;;;;;;;23.38;9.48;;;;;;;5.85;100.00;101146.66;5007362;28;20038;-78
2024/02/01 02:31:46;;;;;;;18.45;6.40;;;;;;;5.72;100.00;101140.63;5009120;28;20114;-79
2024/02/01 02:34:12;;;;;;;19.40;7.00;;;;;;;5.69;100.00;101147.03;4992481;28;20096;-79
2024/02/01 02:36:37;;;;;;;21.20;7.43;;;;;;;5.58;100.00;101144.38;4991567;28;20023;-79
2024/02/01 02:39:03;;;;;;;18.95;4.88;;;;;;;5.58;100.00;101138.22;5008759;28;20087;-79
2024/02/01 02:41:29;;;;;;;22.95;6.15;;;;;;;5.62;100.00;101147.59;4999147;28;20053;-78
2024/02/01 02:43:54;;;;;;;19.65;6.22;;;;;;;5.55;100.00;101147.28;4989761;28;20511;-79
2024/02/01 02:46:21;;;;;;;20.93;5.07;;;;;;;5.38;100.00;101153.03;5005389;28;20033;-78
2024/02/01 02:48:46;;;;;;;19.65;6.03;;;;;;;5.41;100.00;101158.94;4979947;28;20269;-79
2024/02/01 02:51:12;;;;;;;19.80;5.28;;;;;;;5.42;100.00;101170.38;5005373;28;20038;-79
2024/02/01 02:53:37;;;;;;;24.63;5.23;;;;;;;5.36;100.00;101163.75;5007448;28;20026;-79
2024/02/01 02:56:06;;;;;;;31.33;7.78;;;;;;;5.24;100.00;101154.06;4987524;28;20293;-80
2024/02/01 02:58:31;;;;;;;22.92;4.93;;;;;;;5.33;100.00;101157.84;4998709;28;20034;-79
2024/02/01 03:00:56;;;;;;;26.70;3.87;;;;;;;5.19;100.00;101153.59;5009231;28;20887;-80
2024/02/01 03:03:22;;;;;;;24.77;5.07;;;;;;;5.16;100.00;101159.13;5005108;28;20289;-78
2024/02/01 03:05:47;;;;;;;36.27;5.90;;;;;;;5.17;100.00;101155.50;4993556;28;20100;-79
2024/02/01 03:08:13;;;;;;;24.63;5.73;;;;;;;5.20;100.00;101165.88;5003477;28;20037;-80
2024/02/01 03:10:40;;;;;;;25.00;6.05;;;;;;;5.03;100.00;101149.50;4992779;28;20023;-81
2024/02/01 03:13:05;;;;;;;31.27;6.70;;;;;;;5.11;100.00;101170.06;4995042;28;20425;-79
2024/02/01 03:15:32;;;;;;;26.40;5.22;;;;;;;4.93;100.00;101151.13;4995106;28;20041;-78
2024/02/01 03:17:57;;;;;;;23.10;4.18;;;;;;;4.99;100.00;101152.47;4990339;28;20042;-79
2024/02/01 03:20:23;;;;;;;29.25;4.78;;;;;;;4.97;100.00;101133.22;5005277;28;20051;-79
2024/02/01 03:22:54;;;;;;;28.83;5.85;;;;;;;4.94;100.00;101129.03;4991583;28;20054;-79
2024/02/01 03:25:28;;;;;;;34.08;4.38;;;;;;;4.79;100.00;101111.66;5009460;28;20030;-79
2024/02/01 03:28:01;;;;;;;28.20;5.35;;;;;;;4.75;100.00;101113.69;4990948;28;20038;-80
2024/02/01 03:30:30;;;;;;;27.17;4.85;;;;;;;4.62;100.00;101113.75;5002292;28;20496;-78
2024/02/01 03:32:56;;;;;;;28.65;5.30;;;;;;;4.62;100.00;101113.75;5004398;28;20112;-79
2024/02/01 03:35:22;;;;;;;;;;;;;;;4.59;100.00;101121.09;4993998;28;20129;-79
2024/02/01 03:37:49;;;;;;;21.75;3.65;;;;;;;4.60;100.00;101123.59;4991080;28;19926;-80
2024/02/01 03:40:18;;;;;;;34.67;5.43;;;;;;;4.37;100.00;101111.25;5006614;28;20038;-79
2024/02/01 03:42:47;;;;;;;22.23;4.47;;;;;;;4.39;100.00;101122.56;5003230;28;20050;-80
2024/02/01 03:45:13;;;;;;;26.70;4.20;;;;;;;4.33;100.00;101117.72;5006583;28;20641;-81
2024/02/01 03:47:38;;;;;;;33.83;5.25;;;;;;;4.27;100.00;101118.19;5004897;28;20022;-78
2024/02/01 03:50:08;;;;;;;27.60;4.43;;;;;;;4.21;100.00;101117.69;5004813;28;20065;-79
2024/02/01 03:52:34;;;;;;;22.85;5.05;;;;;;;4.12;100.00;101117.50;5011346;28;20315;-79
2024/02/01 03:55:00;;;;;;;21.52;4.65;;;;;;;4.07;100.00;101123.09;5010129;28;20026;-78
2024/02/01 03:57:26;;;;;;;21.58;4.53;;;;;;;4.04;100.00;101128.63;4994996;28;20563;-79
2024/02/01 03:59:52;;;;;;;44.85;6.88;;;;;;;4.02;100.00;101120.78;5014643;28;20030;-79
2024/02/01 04:02:17;;;;;;;;;;;;;;;4.13;100.00;101119.19;5002957;28;20057;-79
2024/02/01 04:04:45;;;;;;;33.05;5.15;;;;;;;3.96;100.00;101094.00;5013908;28;19913;-79
2024/02/01 04:07:18;;;;;;;21.55;5.68;;;;;;;3.94;100.00;101094.09;4994684;28;20110;-80
2024/02/01 04:09:44;;;;;;;35.08;5.38;;;;;;;3.93;100.00;101104.78;5013875;28;20369;-79
2024/02/01 04:12:10;;;;;;;33.70;4.57;;;;;;;3.81;100.00;101095.94;4994529;28;20569;-79
2024/02/01 04:14:36;;;;;;;29.25;6.35;;;;;;;3.86;100.00;101101.72;5007622;28;20057;-78
2024/02/01 04:17:01;;;;;;;28.42;5.47;;;;;;;3.87;100.00;101110.50;4992467;28;20698;-77
2024/02/01 04:19:26;;;;;;;30.10;5.80;;;;;;;3.88;100.00;101113.03;5011443;28;20061;-78
2024/02/01 04:21:52;;;;;;;41.43;6.17;;;;;;;3.78;100.00;101123.41;5012546;28;20057;-78
2024/02/01 04:24:17;;;;;;;31.47;5.77;;;;;;;3.73;100.00;101129.97;4996097;28;20289;-80
2024/02/01 04:26:43;;;;;;;32.10;5.30;;;;;;;3.72;100.00;101128.28;4995999;28;20029;-80
2024/02/01 04:29:11;;;;;;;36.58;5.47;;;;;;;3.76;100.00;101141.16;5006379;28;20289;-78
2024/02/01 04:31:36;;;;;;;30.38;5.55;;;;;;;3.69;100.00;101139.91;4994521;28;20081;-78
2024/02/01 04:34:01;;;;;;;37.78;4.20;;;;;;;3.69;100.00;101144.34;5012283;28;20034;-77
2024/02/01 04:36:27;;;;;;;28.27;5.87;;;;;;;3.65;100.00;101158.72;5002072;28;20034;-79
2024/02/01 04:38:54;;;;;;;29.95;5.60;;;;;;;3.69;100.00;101161.03;4998855;28;20390;-79
2024/02/01 04:41:19;;;;;;;25.10;4.18;;;;;;;3.64;100.00;101160.50;4999515;28;20045;-77
2024/02/01 04:43:45;;;;;;;35.65;5.68;;;;;;;3.67;100.00;101162.09;4994768;28;20655;-77
2024/02/01 04:46:10;;;;;;;23.37;4.07;;;;;;;3.64;100.00;101160.50;4998625;28;20061;-79
2024/02/01 04:48:35;;;;;;;22.87;4.30;;;;;;;3.66;100.00;101177.09;5011087;28;20283;-79
2024/02/01 04:51:01;;;;;;;22.55;3.78;;;;;;;3.69;100.00;101181.31;5011654;28;20022;-78
2024/02/01 04:53:26;;;;;;;33.83;5.60;;;;;;;3.64;100.00;101173.72;5012004;28;20505;-77
2024/02/01 04:55:52;;;;;;;32.78;5.47;;;;;;;3.61;100.00;101179.22;4990601;28;20029;-78
2024/02/01 04:58:20;;;;;;;20.98;3.85;;;;;;;3.56;100.00;101176.06;4999955;28;20073;-78
2024/02/01 05:00:47;;;;;;;15.82;3.30;;;;;;;3.63;100.00;101187.03;5001140;28;20030;-78
2024/02/01 05:03:15;;;;;;;26.25;3.75;;;;;;;3.69;100.00;101200.66;4988366;28;20407;-77
2024/02/01 05:05:45;;;;;;;24.55;4.03;;;;;;;3.68;100.00;101198.13;4988243;28;20465;-78
2024/02/01 05:08:12;;;;;;;26.50;3.58;;;;;;;3.61;100.00;101197.72;4994689;28;20045;-77
2024/02/01 05:10:39;;;;;;;23.63;3.78;;;;;;;3.68;100.00;101203.41;5011818;28;21222;-78
2024/02/01 05:13:05;;;;;;;28.17;4.03;;;;;;;3.66;100.00;101198.22;5005157;28;20037;-78
2024/02/01 05:15:30;;;;;;;35.80;4.15;;;;;;;3.68;100.00;101201.59;4995343;28;20037;-79
2024/02/01 05:17:55;;;;;;;30.03;3.57;;;;;;;3.67;100.00;101199.91;5012983;28;20063;-78
2024/02/01 05:20:21;;;;;;;24.33;3.83;;;;;;;3.67;100.00;101191.97;4995109;28;20034;-78
2024/02/01 05:22:46;;;;;;;29.43;3.80;;;;;;;3.64;100.00;101194.00;5012110;28;20293;-78
2024/02/01 05:25:14;;;;;;;26.60;5.83;;;;;;;3.78;100.00;101204.44;5011627;28;20025;-78
2024/02/01 05:27:50;;;;;;;53.60;5.10;;;;;;;3.69;100.00;101195.38;4995454;28;20369;-79
2024/02/01 05:30:16;;;;;;;;;;;;;;;3.68;100.00;101196.31;5010866;28;20029;-78
2024/02/01 05:32:48;;;;;;;23.92;4.35;;;;;;;3.60;100.00;101185.44;5013246;28;20516;-79
2024/02/01 05:35:15;;;;;;;18.42;3.75;;;;;;;3.65;100.00;101201.81;4995309;28;20067;-79
2024/02/01 05:37:46;;;;;;;31.08;4.72;;;;;;;3.61;100.00;101197.72;5011632;28;20034;-79
2024/02/01 05:40:16;;;;;;;23.85;4.95;;;;;;;3.63;100.00;101213.41;4991604;28;20035;-77
2024/02/01 05:42:45;;;;;;;26.92;3.47;;;;;;;3.70;100.00;101217.31;5012596;28;20056;-78
2024/02/01 05:45:12;;;;;;;23.58;3.88;;;;;;;3.67;100.00;101210.47;4991738;28;20026;-78
2024/02/01 05:47:37;;;;;;;26.45;4.82;;;;;;;3.68;100.00;101228.00;5027007;28;20618;-79
2024/02/01 05:50:04;;;;;;;44.25;5.63;;;;;;;3.67;100.00;101234.22;4998855;28;20076;-78
2024/02/01 05:52:33;;;;;;;32.22;7.97;;;;;;;3.70;100.00;101239.31;4999400;28;20037;-79
2024/02/01 05:54:58;;;;;;;22.63;4.68;;;;;;;3.73;100.00;101243.53;5010791;28;20041;-78
2024/02/01 05:57:24;;;;;;;32.38;6.10;;;;;;;3.69;100.00;101244.69;4998259;28;20034;-79
2024/02/01 05:59:49;;;;;;;27.70;4.73;;;;;;;3.63;100.00;101235.41;5010891;28;20108;-78
2024/02/01 06:02:14;;;;;;;22.83;4.30;;;;;;;3.69;100.00;101249.97;4991850;28;20030;-79
2024/02/01 06:04:42;;;;;;;25.07;4.30;;;;;;;3.63;100.00;101250.38;5000561;28;20037;-78
2024/02/01 06:07:07;;;;;;;24.38;5.10;;;;;;;3.73;100.00;101259.38;4989671;28;20289;-79
2024/02/01 06:09:33;;;;;;;17.60;4.57;;;;;;;3.72;100.00;101257.69;4994489;28;20076;-79
2024/02/01 06:11:58;;;;;;;25.15;5.05;;;;;;;3.73;100.00;101256.75;5007162;28;20088;-78
2024/02/01 06:14:23;;;;;;;34.87;5.90;;;;;;;3.73;100.00;101252.31;5002822;28;20041;-78
2024/02/01 06:16:49;;;;;;;27.00;5.73;;;;;;;3.59;100.00;101240.06;4994655;28;20281;-77
2024/02/01 06:19:14;;;;;;;22.93;4.40;;;;;;;3.66;100.00;101264.25;4994282;28;20794;-78
2024/02/01 06:21:41;;;;;;;29.27;5.05;;;;;;;3.66;100.00;101263.41;4992364;28;20037;-78
2024/02/01 06:24:10;;;;;;;44.55;7.85;;;;;;;3.64;100.00;101276.69;5006588;28;20057;-78
2024/02/01 06:26:36;;;;;;;27.13;5.15;;;;;;;3.73;100.00;101283.16;5009774;28;20061;-78
2024/02/01 06:29:07;;;;;;;22.67;4.75;;;;;;;3.68;100.00;101283.47;5009667;28;20053;-77
2024/02/01 06:31:37;;;;;;;36.72;6.57;;;;;;;3.58;100.00;101280.63;5011452;28;20068;-78
2024/02/01 06:34:06;;;;;;;24.55;3.60;;;;;;;3.68;100.00;101296.69;5019653;28;20041;-78
2024/02/01 06:36:35;;;;;;;28.25;4.72;;;;;;;3.67;100.00;101297.59;4984330;28;20033;-77
2024/02/01 06:39:16;;;;;;;22.25;3.88;;;;;;;3.81;100.00;101318.63;5001950;28;20451;-77
2024/02/01 06:41:51;;;;;;;36.50;4.15;;;;;;;3.87;100.00;101321.84;5007409;28;20061;-77
2024/02/01 06:44:26;;;;;;;39.80;5.05;;;;;;;3.90;100.00;101321.63;5009331;28;20042;-78
2024/02/01 06:52:02;;;;;;;26.73;4.72;;;;;;;4.14;100.00;101305.84;5001198;28;20030;-77
2024/02/01 06:54:39;;;;;;;39.13;5.93;;;;;;;4.13;100.00;101286.53;5006151;28;20056;-77
2024/02/01 06:57:13;;;;;;;32.28;5.72;;;;;;;4.29;100.00;101290.75;4996071;28;20033;-77
2024/02/01 07:02:35;;;;;;;32.22;5.43;;;;;;;4.28;100.00;101247.56;5005234;28;20045;-77
2024/02/01 07:05:21;;;;;;;39.92;7.22;;;;;;;4.15;100.00;101241.50;4986134;28;20034;-77
2024/02/01 07:07:50;;;;;;;20.75;4.30;;;;;;;4.23;100.00;101255.84;5003657;28;20033;-77
2024/02/01 07:10:21;;;;;;;38.00;7.97;;;;;;;4.20;100.00;101256.06;4984380;28;20598;-77
2024/02/01 07:15:30;;;;;;;43.75;8.48;;;;;;;4.23;100.00;101269.03;5003808;28;20033;-77
2024/02/01 07:18:02;;;;;;;34.70;6.78;;;;;;;4.23;100.00;101266.41;4989809;28;20455;-77
2024/02/01 07:20:46;;;;;;;38.45;7.70;;;;;;;4.23;100.00;101262.91;5007542;28;20042;-76
2024/02/01 07:26:00;;;;;;;35.55;5.25;;;;;;;4.37;100.00;101268.06;4997719;28;20060;-77
2024/02/01 07:58:32;;;;;;;30.77;7.22;;;;;;;4.67;100.00;101236.88;5007125;28;20248;-76
2024/02/01 08:01:00;;;;;;;32.47;5.60;;;;;;;4.78;100.00;101258.94;5022872;28;20041;-76
2024/02/01 08:08:36;;;;;;;31.80;3.70;;;;;;;4.75;100.00;101208.94;5007041;28;20038;-77
2024/02/01 08:11:02;;;;;;;42.00;6.43;;;;;;;4.95;100.00;101252.41;5007304;28;20939;-76
2024/02/01 08:13:28;;;;;;;44.22;6.95;;;;;;;5.20;100.00;101256.72;5006972;28;20491;-76
2024/02/01 08:15:55;;;;;;;36.28;7.93;;;;;;;5.48;100.00;101244.88;5007354;28;20092;-77
2024/02/01 08:18:21;;;;;;;34.03;5.80;;;;;;;5.65;100.00;101209.16;5006181;28;20096;-76
2024/02/01 08:20:46;;;;;;;48.47;9.77;;;;;;;5.71;100.00;101176.03;5005649;28;20041;-76
2024/02/01 08:23:23;;;;;;;40.80;7.28;;;;;;;5.77;100.00;101127.03;5006175;28;20082;-76
2024/02/01 08:25:50;;;;;;;31.83;6.38;;;;;;;5.76;100.00;101097.03;4998989;28;20109;-77
2024/02/01 08:28:17;;;;;;;44.80;6.20;;;;;;;5.99;100.00;101079.28;5022351;28;20116;-77
2024/02/01 08:30:44;;;;;;;42.13;7.80;;;;;;;6.14;100.00;101018.91;5007347;28;20939;-77
2024/02/01 08:33:18;;;;;;;42.40;6.85;;;;;;;6.36;100.00;101025.06;5006001;28;20104;-77
2024/02/01 08:35:45;;;;;;;41.58;7.28;;;;;;;6.42;100.00;100974.16;5007269;28;20176;-76
2024/02/01 08:38:12;;;;;;;42.15;5.63;;;;;;;6.83;100.00;100954.69;4989715;28;20118;-77
2024/02/01 08:40:40;;;;;;;40.22;7.18;;;;;;;6.99;100.00;100869.25;5007199;28;20452;-77
2024/02/01 08:43:07;;;;;;;35.58;6.45;;;;;;;7.13;100.00;100794.50;5006382;28;20441;-77
2024/02/01 08:45:37;;;;;;;34.67;5.53;;;;;;;7.33;100.00;100746.72;5001825;28;20399;-77
2024/02/01 08:48:04;;;;;;;29.42;7.40;;;;;;;7.83;100.00;100718.06;5001240;28;20029;-77
2024/02/01 08:50:30;;;;;;;37.20;5.63;;;;;;;7.77;100.00;100632.75;4992388;28;20033;-76
2024/02/01 08:52:56;;;;;;;35.72;5.78;;;;;;;7.51;100.00;100564.34;4989297;28;20057;-77
2024/02/01 08:55:21;;;;;;;37.67;7.20;;;;;;;7.16;100.00;100464.16;5005329;28;20465;-76
2024/02/01 08:57:47;;;;;;;35.13;6.60;;;;;;;7.65;100.00;100549.75;5018189;28;20508;-76
2024/02/01 09:00:26;;;;;;;40.07;9.10;;;;;;;7.54;100.00;100510.94;5009368;28;20086;-76
2024/02/01 09:03:05;;;;;;;29.67;8.45;;;;;;;7.12;100.00;100434.44;5006472;28;20027;-77
2024/02/01 09:05:34;;;;;;;50.85;7.05;;;;;;;7.55;100.00;100554.28;5008142;28;20034;-76
2024/02/01 09:08:02;;;;;;;30.35;5.38;;;;;;;7.80;100.00;100563.38;5010746;28;20036;-77
2024/02/01 09:10:27;;;;;;;28.08;6.28;;;;;;;8.11;100.00;100469.97;5009471;28;20477;-76
2024/02/01 09:12:53;;;;;;;42.10;6.75;;;;;;;8.02;100.00;100350.25;4989631;28;20054;-77
2024/02/01 09:15:18;;;;;;;33.47;6.00;;;;;;;7.89;100.00;100355.16;5006354;28;20118;-76
2024/02/01 09:17:46;;;;;;;32.70;6.80;;;;;;;8.14;100.00;100388.06;5002671;28;20041;-76
2024/02/01 09:20:20;;;;;;;29.15;4.82;;;;;;;8.35;100.00;100424.09;5010136;28;20952;-76
2024/02/01 09:22:50;;;;;;;32.08;5.40;;;;;;;8.45;100.00;100316.66;5010575;28;20033;-76
2024/02/01 09:25:17;;;;;;;33.40;6.93;;;;;;;8.11;100.00;100230.66;4992667;28;20495;-77
2024/02/01 09:27:45;;;;;;;32.55;5.63;;;;;;;7.42;100.00;100214.63;5010409;28;20378;-76
2024/02/01 09:30:11;;;;;;;36.97;5.90;;;;;;;7.41;100.00;100340.47;5007636;28;20052;-77
2024/02/01 09:32:39;;;;;;;32.70;5.25;;;;;;;7.57;100.00;100492.03;5003397;28;20125;-76
2024/02/01 09:35:05;;;;;;;30.27;5.38;;;;;;;6.92;100.00;100398.34;5008738;28;20416;-76
2024/02/01 09:37:30;;;;;;;35.90;6.78;;;;;;;6.90;100.00;100602.00;5001405;28;20034;-77
2024/02/01 09:40:00;;;;;;;43.13;6.80;;;;;;;6.92;100.00;100656.63;4988928;28;20073;-76
2024/02/01 09:42:26;;;;;;;26.63;6.05;;;;;;;6.73;100.00;100697.25;4992883;28;20045;-82
2024/02/01 09:44:56;;;;;;;25.73;5.85;;;;;;;7.24;100.00;100844.00;5009614;28;20034;-76
2024/02/01 09:47:23;;;;;;;41.78;6.20;;;;;;;7.10;100.00;100752.31;5000491;28;20666;-77
2024/02/01 09:49:49;;;;;;;35.60;6.20;;;;;;;6.98;100.00;100684.44;4991425;28;20017;-75
2024/02/01 09:52:15;;;;;;;41.17;6.95;;;;;;;6.98;100.00;100733.03;5008149;28;20049;-77
2024/02/01 09:54:40;;;;;;;22.03;5.17;;;;;;;7.26;100.00;100804.00;5022690;28;20130;-76
2024/02/01 09:57:14;;;;;;;38.53;6.43;;;;;;;7.40;100.00;100761.94;4995565;28;20037;-77
2024/02/01 09:59:40;;;;;;;36.33;6.50;;;;;;;7.48;100.00;100601.84;5001877;28;20568;-76
2024/02/01 10:02:09;;;;;;;28.75;5.10;;;;;;;7.08;100.00;100538.41;5007624;28;20021;-77
2024/02/01 10:04:35;;;;;;;30.83;5.80;;;;;;;7.66;100.00;100800.38;5009376;28;20041;-76
2024/02/01 10:07:01;;;;;;;31.38;6.22;;;;;;;7.30;100.00;100543.34;4995716;28;20042;-75
2024/02/01 10:09:26;;;;;;;34.72;7.47;;;;;;;7.68;100.00;100674.34;5005629;28;20064;-77
2024/02/01 10:11:54;;;;;;;27.25;4.72;;;;;;;7.81;100.00;100573.00;5007514;28;20840;-77
2024/02/01 10:14:19;;;;;;;29.13;5.43;;;;;;;8.07;100.00;100666.19;5009243;28;20033;-76
2024/02/01 10:16:45;;;;;;;39.47;7.43;;;;;;;7.93;100.00;100595.75;5008963;28;20437;-77
2024/02/01 10:19:13;;;;;;;33.58;5.57;;;;;;;8.58;100.00;100643.50;5007675;28;20038;-77
2024/02/01 10:21:39;;;;;;;27.00;5.35;;;;;;;8.38;100.00;100413.16;4991484;28;20073;-77
2024/02/01 10:24:05;;;;;;;35.83;6.10;;;;;;;8.79;100.00;100559.84;4998151;28;20018;-77
2024/02/01 10:26:32;;;;;;;24.17;5.95;;;;;;;9.24;100.00;100437.06;4998468;28;20440;-78
2024/02/01 10:28:57;;;;;;;24.55;5.25;;;;;;;9.12;100.00;100257.25;5007220;28;20030;-75
2024/02/01 10:31:23;;;;;;;25.08;6.30;;;;;;;9.30;100.00;100297.06;4992392;28;20048;-75
2024/02/01 10:33:49;;;;;;;36.20;5.78;;;;;;;8.75;100.00;100120.13;4998054;28;20136;-77
2024/02/01 10:36:21;;;;;;;;;;;;;;;9.18;100.00;100293.91;5009370;28;20108;-77
2024/02/01 10:38:50;;;;;;;26.83;5.18;;;;;;;8.75;100.00;100056.25;5007463;28;19921;-77
2024/02/01 10:41:26;;;;;;;23.13;4.63;;;;;;;9.16;100.00;100184.03;5006848;28;20285;-76
2024/02/01 10:43:52;;;;;;;22.73;4.95;;;;;;;9.15;100.00;100142.41;5008174;28;20029;-75
2024/02/01 10:46:29;;;;;;;27.40;4.33;;;;;;;8.60;100.00;100068.56;4999482;28;20511;-75
2024/02/01 10:49:07;;;;;;;36.63;5.10;;;;;;;8.75;100.00;100133.44;4987474;28;20065;-77
2024/02/01 10:51:35;;;;;;;28.58;5.78;;;;;;;8.65;100.00;99979.25;5005455;28;20029;-76
2024/02/01 10:54:01;;;;;;;26.42;6.10;;;;;;;9.23;100.00;100267.59;5007368;28;20517;-77
2024/02/01 10:56:29;;;;;;;30.70;5.63;;;;;;;9.25;100.00;100151.06;5006822;28;20061;-77
2024/02/01 10:58:58;;;;;;;31.50;5.63;;;;;;;9.71;100.00;100123.81;4982492;28;20436;-77
2024/02/01 11:01:25;;;;;;;28.90;5.80;;;;;;;8.97;100.00;99833.75;5008163;28;20041;-76
2024/02/01 11:03:50;;;;;;;25.65;5.40;;;;;;;9.41;100.00;100125.38;5006393;28;20030;-76
2024/02/01 11:06:20;;;;;;;20.17;5.33;;;;;;;9.23;100.00;99901.88;5002355;28;20061;-76
2024/02/01 11:08:52;;;;;;;25.63;5.20;;;;;;;9.43;100.00;100043.47;5007368;28;20034;-77
2024/02/01 11:11:32;;;;;;;30.60;5.07;;;;;;;9.33;100.00;100056.16;5006885;28;20048;-77
2024/02/01 11:14:11;;;;;;;22.83;5.43;;;;;;;9.32;100.00;100033.16;4995124;28;20117;-76
2024/02/01 11:16:42;;;;;;;31.70;6.75;;;;;;;8.85;100.00;99920.34;4997653;28;20893;-76
2024/02/01 11:19:11;;;;;;;30.70;5.28;;;;;;;8.97;100.00;100052.06;5008029;28;20467;-77
2024/02/01 11:21:46;;;;;;;30.20;5.23;;;;;;;9.10;100.00;100030.22;4991580;28;20046;-75
2024/02/01 11:24:11;;;;;;;28.83;5.80;;;;;;;8.55;100.00;99924.56;5007435;28;20109;-76
2024/02/01 11:26:42;;;;;;;30.90;5.60;;;;;;;8.95;100.00;100165.06;4982319;28;20073;-76
2024/02/01 11:29:12;;;;;;;34.83;6.13;;;;;;;9.44;100.00;100168.53;4990576;28;20030;-77
2024/02/01 11:31:48;;;;;;;23.10;4.78;;;;;;;9.62;100.00;100029.75;4990732;28;20390;-76
2024/02/01 11:34:14;;;;;;;25.23;5.87;;;;;;;9.85;100.00;99983.63;5008423;28;20057;-77
2024/02/01 11:36:39;;;;;;;;;;;;;;;10.07;100.00;99915.31;4988924;28;20292;-77
2024/02/01 11:39:09;;;;;;;26.42;4.78;;;;;;;10.44;100.00;99994.56;5006827;28;19913;-76
2024/02/01 11:41:35;;;;;;;27.85;7.35;;;;;;;10.31;100.00;99722.19;4990034;28;20035;-76
2024/02/01 11:44:00;;;;;;;24.73;6.88;;;;;;;10.00;100.00;99712.53;5006589;28;20049;-76
2024/02/01 11:46:26;;;;;;;24.70;4.53;;;;;;;9.95;100.00;99824.25;5007254;28;20054;-78
2024/02/01 11:48:52;;;;;;;24.15;5.15;;;;;;;9.72;100.00;99795.78;5004541;28;20055;-76
2024/02/01 11:51:17;;;;;;;24.90;4.90;;;;;;;9.27;100.00;99807.28;4989965;28;20085;-76
2024/02/01 11:53:43;;;;;;;25.88;5.13;;;;;;;9.88;100.00;99970.78;5005056;28;20038;-76
2024/02/01 11:56:09;;;;;;;28.67;4.78;;;;;;;9.57;100.00;99824.22;4998508;28;20044;-77
2024/02/01 11:58:34;;;;;;;26.70;4.28;;;;;;;9.58;100.00;99833.06;5006293;28;20092;-77
2024/02/01 12:01:00;;;;;;;24.73;3.95;;;;;;;9.70;100.00;99936.41;4982272;28;20732;-78
2024/02/01 12:03:30;;;;;;;26.23;5.18;;;;;;;9.83;100.00;99852.31;4989275;28;20122;-77
2024/02/01 12:05:55;;;;;;;19.35;4.15;;;;;;;9.21;100.00;99726.25;5006353;28;20073;-76